createdAt,value
2024-01-20T00:00:58.648Z,8.80
2024-01-20T00:03:46.708Z,7.80
2024-01-20T00:06:15.089Z,6.90
2024-01-20T00:08:43.326Z,6.80
2024-01-20T00:11:11.490Z,7.70
2024-01-20T00:13:40.008Z,8.60
2024-01-20T00:16:08.152Z,7.70
2024-01-20T00:18:36.639Z,8.20
2024-01-20T00:21:05.102Z,7.10
2024-01-20T00:23:33.158Z,7.90
2024-01-20T00:26:01.325Z,6.70
2024-01-20T00:28:29.739Z,8.30
2024-01-20T00:30:57.914Z,8.30
2024-01-20T00:33:27.317Z,7.70
2024-01-20T00:35:55.920Z,7.20
2024-01-20T00:38:24.074Z,6.40
2024-01-20T00:40:52.550Z,7.50
2024-01-20T00:43:20.716Z,7.70
2024-01-20T00:45:49.148Z,7.30
2024-01-20T00:48:17.209Z,6.80
2024-01-20T00:50:45.286Z,7.10
2024-01-20T00:53:13.521Z,7.50
2024-01-20T00:55:41.730Z,7.00
2024-01-20T00:58:11.649Z,7.80
2024-01-20T01:00:39.955Z,7.90
2024-01-20T01:03:09.559Z,5.70
2024-01-20T01:05:37.734Z,6.50
2024-01-20T01:08:05.954Z,6.30
2024-01-20T01:10:34.381Z,6.80
2024-01-20T01:13:02.489Z,8.00
2024-01-20T01:15:31.993Z,8.00
2024-01-20T01:18:00.088Z,8.50
2024-01-20T01:20:28.157Z,9.60
2024-01-20T01:22:56.280Z,8.10
2024-01-20T01:25:24.442Z,8.10
2024-01-20T01:27:52.392Z,7.60
2024-01-20T01:30:20.720Z,7.20
2024-01-20T01:32:48.962Z,7.60
2024-01-20T01:35:17.087Z,7.80
2024-01-20T01:37:45.193Z,8.60
2024-01-20T01:40:14.350Z,7.50
2024-01-20T01:42:42.594Z,8.80
2024-01-20T01:45:11.598Z,6.30
2024-01-20T01:47:40.417Z,9.60
2024-01-20T01:50:09.175Z,6.80
2024-01-20T01:52:37.666Z,8.50
2024-01-20T01:55:06.060Z,7.60
2024-01-20T01:57:36.318Z,8.70
2024-01-20T02:00:05.772Z,8.80
2024-01-20T02:02:33.890Z,8.20
2024-01-20T02:05:02.067Z,7.60
2024-01-20T02:07:31.087Z,8.00
2024-01-20T02:09:59.102Z,7.20
2024-01-20T02:12:28.649Z,8.40
2024-01-20T02:14:56.899Z,8.40
2024-01-20T02:17:25.260Z,6.80
2024-01-20T02:19:53.377Z,8.30
2024-01-20T02:22:21.642Z,8.20
2024-01-20T02:24:51.095Z,7.90
2024-01-20T02:27:20.372Z,7.00
2024-01-20T02:29:48.553Z,8.50
2024-01-20T02:32:17.105Z,8.00
2024-01-20T02:34:45.255Z,7.70
2024-01-20T02:37:13.294Z,8.40
2024-01-20T02:39:41.480Z,8.10
2024-01-20T02:42:11.005Z,9.20
2024-01-20T02:44:39.825Z,8.60
2024-01-20T02:47:07.996Z,8.60
2024-01-20T02:49:36.436Z,8.60
2024-01-20T02:52:05.148Z,8.20
2024-01-20T02:54:33.346Z,9.20
2024-01-20T02:57:01.668Z,8.90
2024-01-20T02:59:29.796Z,9.70
2024-01-20T03:01:58.287Z,7.40
2024-01-20T03:04:26.364Z,9.10
2024-01-20T03:06:54.413Z,9.70
2024-01-20T03:09:23.053Z,7.20
2024-01-20T03:11:51.127Z,9.60
2024-01-20T03:14:19.238Z,9.00
2024-01-20T03:16:47.292Z,8.20
2024-01-20T03:19:15.410Z,9.50
2024-01-20T03:21:43.439Z,7.80
2024-01-20T03:24:12.154Z,8.20
2024-01-20T03:26:40.162Z,8.50
2024-01-20T03:29:08.294Z,9.10
2024-01-20T03:31:36.416Z,9.60
2024-01-20T03:34:05.080Z,9.20
2024-01-20T03:36:33.269Z,8.10
2024-01-20T03:39:01.417Z,7.00
2024-01-20T03:41:29.497Z,8.80
2024-01-20T03:43:58.773Z,9.40
2024-01-20T03:46:27.088Z,9.00
2024-01-20T03:48:55.316Z,7.40
2024-01-20T03:51:28.293Z,9.30
2024-01-20T03:53:56.953Z,7.10
2024-01-20T03:56:25.087Z,8.00
2024-01-20T03:58:53.190Z,7.80
2024-01-20T04:01:21.390Z,7.10
2024-01-20T04:03:49.443Z,6.40
2024-01-20T04:06:42.715Z,6.90
2024-01-20T04:09:11.045Z,7.40
2024-01-20T04:11:39.140Z,8.10
2024-01-20T04:14:07.167Z,7.60
2024-01-20T04:16:35.326Z,7.30
2024-01-20T04:19:03.504Z,7.30
2024-01-20T04:21:31.517Z,7.60
2024-01-20T04:23:59.674Z,8.10
2024-01-20T04:26:27.861Z,9.40
2024-01-20T04:28:55.867Z,6.70
2024-01-20T04:31:23.845Z,6.90
2024-01-20T04:33:54.898Z,7.60
2024-01-20T04:36:23.309Z,7.00
2024-01-20T04:38:51.598Z,6.30
2024-01-20T04:41:19.603Z,7.90
2024-01-20T04:43:47.681Z,7.20
2024-01-20T04:46:15.672Z,6.10
2024-01-20T04:48:43.929Z,7.10
2024-01-20T04:51:12.571Z,7.00
2024-01-20T04:53:40.817Z,6.90
2024-01-20T04:56:09.089Z,8.20
2024-01-20T04:58:38.652Z,8.30
2024-01-20T05:01:07.082Z,7.30
2024-01-20T05:03:35.233Z,7.00
2024-01-20T05:06:03.455Z,7.00
2024-01-20T05:08:31.605Z,8.10
2024-01-20T05:10:59.605Z,8.90
2024-01-20T05:13:27.559Z,7.20
2024-01-20T05:15:55.777Z,6.70
2024-01-20T05:18:23.885Z,7.40
2024-01-20T05:20:51.944Z,7.50
2024-01-20T05:23:20.310Z,6.90
2024-01-20T05:25:48.806Z,9.00
2024-01-20T05:28:17.009Z,8.40
2024-01-20T05:30:45.266Z,8.10
2024-01-20T05:33:13.598Z,9.00
2024-01-20T05:35:41.966Z,8.10
2024-01-20T05:38:09.987Z,7.10
2024-01-20T05:40:38.014Z,6.90
2024-01-20T05:43:06.070Z,6.90
2024-01-20T05:45:34.265Z,8.10
2024-01-20T05:48:02.693Z,9.10
2024-01-20T05:50:30.720Z,5.60
2024-01-20T05:52:58.776Z,7.40
2024-01-20T05:55:26.787Z,7.90
2024-01-20T05:57:55.163Z,6.30
2024-01-20T06:00:23.564Z,7.60
2024-01-20T06:02:53.648Z,7.80
2024-01-20T06:05:21.811Z,8.40
2024-01-20T06:07:49.893Z,8.30
2024-01-20T06:10:17.998Z,7.00
2024-01-20T06:12:46.060Z,6.70
2024-01-20T06:15:14.197Z,8.20
2024-01-20T06:17:42.382Z,6.90
2024-01-20T06:20:10.875Z,7.50
2024-01-20T06:22:40.529Z,7.90
2024-01-20T06:25:08.748Z,7.50
2024-01-20T06:27:37.255Z,7.60
2024-01-20T06:30:05.935Z,8.10
2024-01-20T06:32:34.022Z,8.20
2024-01-20T06:35:02.267Z,7.30
2024-01-20T06:37:30.463Z,7.30
2024-01-20T06:39:58.590Z,9.40
2024-01-20T06:42:27.096Z,5.90
2024-01-20T06:44:57.237Z,7.50
2024-01-20T06:47:27.438Z,6.50
2024-01-20T06:49:55.564Z,6.70
2024-01-20T06:52:23.700Z,7.00
2024-01-20T06:54:51.933Z,7.00
2024-01-20T06:57:20.250Z,7.80
2024-01-20T06:59:48.348Z,7.50
2024-01-20T07:02:16.963Z,7.90
2024-01-20T07:04:45.378Z,8.80
2024-01-20T07:07:13.997Z,6.90
2024-01-20T07:09:42.078Z,7.80
2024-01-20T07:12:10.861Z,8.00
2024-01-20T07:14:39.273Z,8.50
2024-01-20T07:17:07.419Z,7.40
2024-01-20T07:19:35.817Z,7.70
2024-01-20T07:22:04.186Z,5.60
2024-01-20T07:24:32.607Z,7.20
2024-01-20T07:27:00.831Z,8.30
2024-01-20T07:29:28.937Z,8.00
2024-01-20T07:31:57.093Z,7.40
2024-01-20T07:34:25.296Z,7.30
2024-01-20T07:36:53.449Z,8.30
2024-01-20T07:39:21.693Z,8.80
2024-01-20T07:41:49.790Z,7.10
2024-01-20T07:44:17.881Z,7.80
2024-01-20T07:46:46.055Z,7.40
2024-01-20T07:49:15.598Z,6.80
2024-01-20T07:51:43.791Z,8.20
2024-01-20T07:54:13.618Z,6.30
2024-01-20T07:56:41.942Z,7.80
2024-01-20T07:59:10.295Z,7.80
2024-01-20T08:01:39.669Z,8.70
2024-01-20T08:04:08.761Z,7.30
2024-01-20T08:06:37.705Z,7.60
2024-01-20T08:09:06.105Z,7.30
2024-01-20T08:11:34.186Z,7.70
2024-01-20T08:14:02.410Z,7.20
2024-01-20T08:16:30.749Z,6.50
2024-01-20T08:18:59.448Z,7.30
2024-01-20T08:21:27.713Z,6.50
2024-01-20T08:23:56.496Z,8.00
2024-01-20T08:26:24.629Z,7.60
2024-01-20T08:28:52.927Z,7.80
2024-01-20T08:31:21.115Z,7.40
2024-01-20T08:33:49.399Z,6.90
2024-01-20T08:36:17.767Z,6.70
2024-01-20T08:38:45.901Z,6.70
2024-01-20T08:41:14.014Z,6.30
2024-01-20T08:43:43.330Z,7.00
2024-01-20T08:46:13.660Z,6.30
2024-01-20T08:48:43.272Z,6.80
2024-01-20T08:51:11.510Z,6.60
2024-01-20T08:53:40.929Z,6.50
2024-01-20T08:56:09.762Z,7.20
2024-01-20T08:58:37.978Z,7.30
2024-01-20T09:01:07.998Z,6.50
2024-01-20T09:03:36.413Z,7.40
2024-01-20T09:06:05.137Z,6.00
2024-01-20T09:08:33.210Z,6.30
2024-01-20T09:11:01.354Z,6.80
2024-01-20T09:13:29.426Z,7.60
2024-01-20T09:15:57.853Z,7.20
2024-01-20T09:18:26.980Z,8.10
2024-01-20T09:20:55.443Z,7.10
2024-01-20T09:23:23.486Z,7.50
2024-01-20T09:25:51.713Z,7.20
2024-01-20T09:28:19.714Z,6.70
2024-01-20T09:30:47.903Z,8.10
2024-01-20T09:33:16.327Z,7.30
2024-01-20T09:35:46.386Z,7.00
2024-01-20T09:38:14.581Z,7.40
2024-01-20T09:40:42.990Z,8.50
2024-01-20T09:43:11.622Z,8.00
2024-01-20T09:45:41.681Z,8.30
2024-01-20T09:48:11.040Z,7.10
2024-01-20T09:50:39.470Z,7.50
2024-01-20T09:53:18.672Z,7.50
2024-01-20T09:55:47.589Z,7.70
2024-01-20T09:58:18.534Z,7.60
2024-01-20T10:00:49.029Z,8.40
2024-01-20T10:03:18.701Z,7.10
2024-01-20T10:05:47.985Z,6.90
2024-01-20T10:08:16.137Z,7.40
2024-01-20T10:10:45.046Z,7.00
2024-01-20T10:13:14.751Z,8.40
2024-01-20T10:15:42.917Z,7.80
2024-01-20T10:18:14.097Z,6.20
2024-01-20T10:20:43.492Z,8.40
2024-01-20T10:23:12.769Z,8.50
2024-01-20T10:25:40.876Z,8.50
2024-01-20T10:28:09.144Z,8.40
2024-01-20T10:30:40.182Z,9.10
2024-01-20T10:33:11.070Z,7.60
2024-01-20T10:35:40.345Z,8.40
2024-01-20T10:38:14.120Z,8.20
2024-01-20T10:40:44.596Z,6.60
2024-01-20T10:43:16.663Z,8.10
2024-01-20T10:46:13.098Z,7.10
2024-01-20T10:48:49.581Z,6.90
2024-01-20T10:51:24.106Z,6.40
2024-01-20T10:53:53.157Z,7.60
2024-01-20T10:56:21.753Z,7.60
2024-01-20T10:58:57.912Z,7.70
2024-01-20T11:01:26.723Z,7.90
2024-01-20T11:03:55.421Z,6.60
2024-01-20T11:06:26.565Z,7.30
2024-01-20T11:08:54.924Z,7.40
2024-01-20T11:11:30.516Z,7.40
2024-01-20T11:14:03.167Z,7.50
2024-01-20T11:16:38.303Z,7.30
2024-01-20T11:19:13.681Z,8.10
2024-01-20T11:21:42.194Z,6.50
2024-01-20T11:24:11.999Z,7.70
2024-01-20T11:26:41.200Z,6.00
2024-01-20T11:29:09.962Z,7.80
2024-01-20T11:31:38.315Z,7.30
2024-01-20T11:34:07.703Z,8.00
2024-01-20T11:36:36.655Z,7.40
2024-01-20T11:39:07.240Z,7.20
2024-01-20T11:41:35.689Z,6.90
2024-01-20T11:44:03.711Z,6.90
2024-01-20T11:46:31.886Z,6.90
2024-01-20T11:49:00.365Z,7.60
2024-01-20T11:51:29.291Z,7.30
2024-01-20T11:53:57.376Z,7.20
2024-01-20T11:56:26.273Z,7.50
2024-01-20T11:58:54.456Z,8.30
2024-01-20T12:01:22.780Z,7.00
2024-01-20T12:03:51.016Z,6.60
2024-01-20T12:06:19.373Z,8.20
2024-01-20T12:08:47.746Z,6.00
2024-01-20T12:11:23.374Z,7.50
2024-01-20T12:13:51.882Z,6.90
2024-01-20T12:16:20.207Z,6.00
2024-01-20T12:18:48.594Z,7.40
2024-01-20T12:21:17.396Z,7.50
2024-01-20T12:23:48.012Z,6.60
2024-01-20T12:26:17.770Z,8.80
2024-01-20T12:28:48.133Z,8.30
2024-01-20T12:31:19.219Z,8.00
2024-01-20T12:33:50.885Z,7.70
2024-01-20T12:36:20.442Z,7.70
2024-01-20T12:38:49.347Z,8.70
2024-01-20T12:41:17.751Z,6.90
2024-01-20T12:43:49.994Z,8.10
2024-01-20T12:46:19.355Z,6.60
2024-01-20T12:48:47.386Z,7.00
2024-01-20T12:51:16.504Z,7.50
2024-01-20T12:53:45.187Z,7.10
2024-01-20T12:56:13.432Z,8.20
2024-01-20T12:58:42.472Z,7.90
2024-01-20T13:01:10.440Z,7.20
2024-01-20T13:03:38.908Z,6.50
2024-01-20T13:06:07.163Z,8.60
2024-01-20T13:08:36.172Z,8.00
2024-01-20T13:11:04.755Z,7.80
2024-01-20T13:13:33.836Z,7.80
2024-01-20T13:16:02.286Z,7.60
2024-01-20T13:18:32.299Z,8.70
2024-01-20T13:21:00.689Z,6.50
2024-01-20T13:23:28.753Z,7.50
2024-01-20T13:25:56.963Z,8.70
2024-01-20T13:28:25.146Z,8.90
2024-01-20T13:30:53.611Z,7.60
2024-01-20T13:33:24.213Z,7.70
2024-01-20T13:35:53.484Z,9.10
2024-01-20T13:38:21.471Z,10.20
2024-01-20T13:40:52.234Z,8.90
2024-01-20T13:43:20.197Z,8.10
2024-01-20T13:45:48.276Z,9.20
2024-01-20T13:48:16.374Z,9.00
2024-01-20T13:50:44.420Z,9.60
2024-01-20T13:53:12.331Z,9.80
2024-01-20T13:55:40.469Z,7.60
2024-01-20T13:58:08.860Z,8.70
2024-01-20T14:00:36.884Z,8.40
2024-01-20T14:03:05.271Z,9.40
2024-01-20T14:05:33.596Z,7.60
2024-01-20T14:08:01.610Z,9.90
2024-01-20T14:10:32.078Z,10.30
2024-01-20T14:13:03.513Z,9.60
2024-01-20T14:15:46.568Z,8.00
2024-01-20T14:18:15.314Z,10.50
2024-01-20T14:20:43.391Z,10.10
2024-01-20T14:23:12.520Z,10.20
2024-01-20T14:25:42.924Z,9.20
2024-01-20T14:28:10.931Z,10.30
2024-01-20T14:30:48.007Z,9.20
2024-01-20T14:33:27.070Z,10.20
2024-01-20T14:35:54.996Z,9.70
2024-01-20T14:38:22.867Z,9.30
2024-01-20T14:40:51.124Z,9.50
2024-01-20T14:43:19.081Z,10.90
2024-01-20T14:45:47.120Z,11.40
2024-01-20T14:48:15.615Z,9.40
2024-01-20T14:50:45.756Z,10.50
2024-01-20T14:53:13.703Z,10.50
2024-01-20T14:55:44.185Z,10.70
2024-01-20T14:58:12.239Z,10.10
2024-01-20T15:00:42.331Z,10.60
2024-01-20T15:03:57.977Z,9.20
2024-01-20T15:06:32.978Z,9.10
2024-01-20T15:09:08.494Z,9.90
2024-01-20T15:11:39.842Z,10.00
2024-01-20T15:14:09.558Z,9.70
2024-01-20T15:16:37.801Z,10.50
2024-01-20T15:19:07.766Z,10.10
2024-01-20T15:21:36.421Z,8.40
2024-01-20T15:24:04.763Z,9.10
2024-01-20T15:26:34.256Z,10.50
2024-01-20T15:29:20.238Z,8.70
2024-01-20T15:31:53.052Z,10.30
2024-01-20T15:34:22.183Z,10.60
2024-01-20T15:36:52.255Z,9.40
2024-01-20T15:39:20.297Z,10.20
2024-01-20T15:41:48.437Z,10.10
2024-01-20T15:44:17.525Z,9.60
2024-01-20T15:46:48.086Z,8.00
2024-01-20T15:49:18.876Z,9.20
2024-01-20T15:51:51.084Z,9.00
2024-01-20T15:54:19.797Z,7.20
2024-01-20T15:56:50.827Z,7.50
2024-01-20T15:59:24.473Z,9.50
2024-01-20T16:01:53.332Z,8.30
2024-01-20T16:04:21.476Z,6.60
2024-01-20T16:06:49.769Z,7.70
2024-01-20T16:09:18.715Z,8.50
2024-01-20T16:11:51.840Z,9.10
2024-01-20T16:14:27.830Z,6.60
2024-01-20T16:16:55.749Z,8.10
2024-01-20T16:19:24.360Z,7.80
2024-01-20T16:21:54.744Z,8.20
2024-01-20T16:24:23.356Z,8.00
2024-01-20T16:26:51.801Z,9.10
2024-01-20T16:29:21.194Z,9.40
2024-01-20T16:31:51.217Z,9.00
2024-01-20T16:34:23.467Z,9.50
2024-01-20T16:36:52.570Z,7.60
2024-01-20T16:39:20.723Z,8.50
2024-01-20T16:41:48.552Z,7.50
2024-01-20T16:44:16.476Z,9.50
2024-01-20T16:46:52.590Z,7.30
2024-01-20T16:49:21.891Z,8.60
2024-01-20T16:51:50.389Z,9.20
2024-01-20T16:54:18.669Z,10.40
2024-01-20T16:56:46.606Z,9.60
2024-01-20T16:59:14.445Z,9.00
2024-01-20T17:01:42.510Z,8.00
2024-01-20T17:04:10.588Z,8.80
2024-01-20T17:06:39.244Z,8.70
2024-01-20T17:09:07.198Z,8.90
2024-01-20T17:11:35.312Z,7.70
2024-01-20T17:14:04.889Z,7.30
2024-01-20T17:16:36.028Z,8.70
2024-01-20T17:19:05.131Z,10.20
2024-01-20T17:21:35.884Z,8.20
2024-01-20T17:24:07.528Z,9.60
2024-01-20T17:26:35.464Z,10.90
2024-01-20T17:29:03.877Z,8.30
2024-01-20T17:31:34.958Z,7.10
2024-01-20T17:34:04.855Z,9.70
2024-01-20T17:36:33.643Z,9.30
2024-01-20T17:39:01.762Z,10.60
2024-01-20T17:41:29.763Z,9.80
2024-01-20T17:43:57.737Z,11.60
2024-01-20T17:46:25.554Z,10.80
2024-01-20T17:48:53.457Z,11.30
2024-01-20T17:51:21.793Z,11.20
2024-01-20T17:53:49.625Z,11.30
2024-01-20T17:56:17.796Z,9.80
2024-01-20T17:58:46.090Z,11.20
2024-01-20T18:01:14.030Z,11.90
2024-01-20T18:03:42.101Z,10.50
2024-01-20T18:06:10.451Z,10.70
2024-01-20T18:08:39.107Z,11.30
2024-01-20T18:11:07.178Z,9.60
2024-01-20T18:13:36.587Z,11.40
2024-01-20T18:16:05.684Z,9.90
2024-01-20T18:18:35.947Z,11.60
2024-01-20T18:21:04.676Z,11.20
2024-01-20T18:23:32.906Z,9.60
2024-01-20T18:26:01.058Z,7.70
2024-01-20T18:28:29.201Z,8.90
2024-01-20T18:30:57.390Z,10.50
2024-01-20T18:33:26.731Z,11.00
2024-01-20T18:35:55.068Z,9.50
2024-01-20T18:38:23.985Z,10.40
2024-01-20T18:40:52.023Z,10.70
2024-01-20T18:43:20.179Z,11.90
2024-01-20T18:45:48.257Z,10.20
2024-01-20T18:48:16.562Z,10.20
2024-01-20T18:50:45.977Z,10.30
2024-01-20T18:53:14.474Z,10.60
2024-01-20T18:55:43.099Z,11.50
2024-01-20T18:58:13.339Z,11.60
2024-01-20T19:00:41.455Z,10.90
2024-01-20T19:03:10.201Z,10.50
2024-01-20T19:05:39.303Z,11.40
2024-01-20T19:08:07.779Z,11.40
2024-01-20T19:10:36.015Z,13.10
2024-01-20T19:13:04.140Z,11.60
2024-01-20T19:15:32.727Z,8.80
2024-01-20T19:18:00.868Z,13.10
2024-01-20T19:20:29.171Z,10.20
2024-01-20T19:22:57.308Z,11.20
2024-01-20T19:25:25.364Z,12.10
2024-01-20T19:27:54.066Z,12.40
2024-01-20T19:30:22.378Z,10.10
2024-01-20T19:32:51.022Z,12.70
2024-01-20T19:35:20.606Z,11.30
2024-01-20T19:37:49.337Z,10.20
2024-01-20T19:40:17.610Z,9.90
2024-01-20T19:42:45.755Z,10.40
2024-01-20T19:45:14.624Z,10.60
2024-01-20T19:47:42.748Z,10.50
2024-01-20T19:50:11.852Z,11.50
2024-01-20T19:52:40.172Z,10.70
2024-01-20T19:55:09.623Z,10.90
2024-01-20T19:57:38.014Z,10.60
2024-01-20T20:00:07.053Z,13.20
2024-01-20T20:02:41.065Z,7.90
2024-01-20T20:05:09.074Z,11.20
2024-01-20T20:07:37.726Z,13.40
2024-01-20T20:10:06.648Z,11.20
2024-01-20T20:12:34.788Z,13.00
2024-01-20T20:15:04.557Z,12.40
2024-01-20T20:17:33.952Z,12.20
2024-01-20T20:20:02.562Z,11.80
2024-01-20T20:22:30.791Z,12.80
2024-01-20T20:24:58.855Z,11.10
2024-01-20T20:27:27.788Z,11.70
2024-01-20T20:29:56.569Z,12.80
2024-01-20T20:32:26.153Z,11.70
2024-01-20T20:34:54.672Z,12.20
2024-01-20T20:37:22.941Z,12.40
2024-01-20T20:39:51.396Z,10.80
2024-01-20T20:42:26.151Z,12.50
2024-01-20T20:44:55.265Z,13.20
2024-01-20T20:47:28.107Z,12.30
2024-01-20T20:49:57.124Z,11.90
2024-01-20T20:52:30.679Z,12.10
2024-01-20T20:54:58.865Z,13.10
2024-01-20T20:57:26.932Z,13.60
2024-01-20T20:59:57.951Z,11.80
2024-01-20T21:02:31.406Z,11.50
2024-01-20T21:04:59.637Z,12.90
2024-01-20T21:07:31.710Z,12.70
2024-01-20T21:10:00.799Z,11.90
2024-01-20T21:12:29.460Z,13.90
2024-01-20T21:14:58.150Z,13.50
2024-01-20T21:17:28.637Z,12.30
2024-01-20T21:19:57.034Z,12.10
2024-01-20T21:22:25.483Z,11.90
2024-01-20T21:24:53.481Z,16.70
2024-01-20T21:27:23.335Z,13.20
2024-01-20T21:29:51.393Z,11.10
2024-01-20T21:32:22.118Z,12.60
2024-01-20T21:34:50.605Z,12.30
2024-01-20T21:37:18.918Z,11.60
2024-01-20T21:39:47.026Z,12.20
2024-01-20T21:42:17.908Z,11.80
2024-01-20T21:44:46.427Z,13.70
2024-01-20T21:47:14.480Z,13.20
2024-01-20T21:49:42.626Z,13.20
2024-01-20T21:52:10.931Z,13.80
2024-01-20T21:54:39.047Z,11.90
2024-01-20T21:57:07.344Z,12.30
2024-01-20T21:59:35.417Z,13.80
2024-01-20T22:02:04.719Z,11.20
2024-01-20T22:04:32.746Z,11.50
2024-01-20T22:07:00.901Z,13.80
2024-01-20T22:09:28.906Z,12.70
2024-01-20T22:11:56.927Z,15.20
2024-01-20T22:14:24.919Z,12.70
2024-01-20T22:16:53.610Z,16.00
2024-01-20T22:19:21.742Z,18.90
2024-01-20T22:21:49.787Z,17.80
2024-01-20T22:24:17.855Z,13.80
2024-01-20T22:26:46.466Z,12.60
2024-01-20T22:29:23.407Z,11.70
2024-01-20T22:31:56.413Z,12.20
2024-01-20T22:34:30.916Z,11.90
2024-01-20T22:37:00.540Z,13.10
2024-01-20T22:39:28.872Z,13.30
2024-01-20T22:41:57.093Z,11.60
2024-01-20T22:44:25.176Z,12.00
2024-01-20T22:46:53.463Z,12.10
2024-01-20T22:49:22.943Z,9.60
2024-01-20T22:51:51.376Z,12.70
2024-01-20T22:54:23.617Z,12.80
2024-01-20T22:56:52.593Z,14.10
2024-01-20T22:59:20.661Z,8.70
2024-01-20T23:01:48.703Z,12.70
2024-01-20T23:04:17.006Z,13.30
2024-01-20T23:06:46.955Z,11.70
2024-01-20T23:09:15.040Z,11.80
2024-01-20T23:11:43.108Z,13.00
2024-01-20T23:14:12.097Z,13.30
2024-01-20T23:16:40.560Z,11.60
2024-01-20T23:19:09.316Z,13.00
2024-01-20T23:21:37.426Z,15.40
2024-01-20T23:24:05.921Z,16.80
2024-01-20T23:26:33.971Z,14.70
2024-01-20T23:29:02.481Z,14.80
2024-01-20T23:31:30.455Z,13.90
2024-01-20T23:33:58.680Z,11.90
2024-01-20T23:36:26.857Z,14.40
2024-01-20T23:38:54.849Z,13.80
2024-01-20T23:41:23.057Z,13.40
2024-01-20T23:43:51.036Z,14.20
2024-01-20T23:46:19.045Z,12.20
2024-01-20T23:48:47.048Z,12.70
2024-01-20T23:51:15.280Z,14.60
2024-01-20T23:53:43.427Z,14.30
2024-01-20T23:56:12.031Z,14.40
2024-01-20T23:58:40.194Z,13.80
